This is the latest recevied weather packets stored in our database for station/object KN6ETB-1. If no packets are shown the sender has not sent any weather packets the latest 10 day(s).
| Time | Temp. | Humidity | Pressure | Rain* | Wind** | Luminosity | Snow |
|---|---|---|---|---|---|---|---|
| 1778028626 | 18.89° C | 70% | 1012.2 hPa | 0 mm | - | 154 W/m² | - |
| 1778028324 | 18.89° C | 69% | 1012.2 hPa | 0 mm | - | 167 W/m² | - |
| 1778028020 | 19.44° C | 69% | 1012.3 hPa | 0 mm | - | 178 W/m² | - |
| 1778027716 | 18.89° C | 70% | 1012.2 hPa | 0 mm | - | 278 W/m² | - |
| 1778027412 | 18.89° C | 70% | 1012.3 hPa | 0 mm | - | 206 W/m² | - |
| 1778027109 | 18.89° C | 70% | 1012.2 hPa | 0 mm | - | 209 W/m² | - |
| 1778026804 | 18.89° C | 71% | 1012.2 hPa | 0 mm | - | 203 W/m² | - |
| 1778026501 | 18.89° C | 70% | 1012.1 hPa | 0 mm | - | 189 W/m² | - |
| 1778026198 | 19.44° C | 70% | 1012.3 hPa | 0 mm | - | 200 W/m² | - |
| 1778025895 | 18.89° C | 71% | 1012.1 hPa | 0 mm | - | 235 W/m² | - |
| 1778025592 | 18.89° C | 71% | 1012.3 hPa | 0 mm | - | 308 W/m² | - |
| 1778025291 | 18.89° C | 70% | 1012.2 hPa | 0 mm | - | 239 W/m² | - |
| 1778024987 | 18.89° C | 70% | 1012 hPa | 0 mm | - | 245 W/m² | - |
| 1778024685 | 18.89° C | 70% | 1012.1 hPa | 0 mm | - | 281 W/m² | - |
| 1778024381 | 18.89° C | 70% | 1012.1 hPa | 0 mm | - | 263 W/m² | - |
| 1778024079 | 19.44° C | 69% | 1012.3 hPa | 0 mm | - | 217 W/m² | - |
| 1778023776 | 18.89° C | 70% | 1012.2 hPa | 0 mm | - | 234 W/m² | - |
| 1778023474 | 19.44° C | 70% | 1012.4 hPa | 0 mm | - | 279 W/m² | - |
| 1778023171 | 18.89° C | 71% | 1012.3 hPa | 0 mm | - | 367 W/m² | - |
| 1778022868 | 18.33° C | 73% | 1012.4 hPa | 0 mm | - | 362 W/m² | - |
| 1778022566 | 17.78° C | 73% | 1012.4 hPa | 0 mm | - | 203 W/m² | - |
| 1778022264 | 18.33° C | 73% | 1012.6 hPa | 0 mm | - | 165 W/m² | - |
| 1778021960 | 17.78° C | 73% | 1012.4 hPa | 0 mm | - | 139 W/m² | - |
| 1778021657 | 18.33° C | 73% | 1012.6 hPa | 0 mm | - | 135 W/m² | - |
| 1778021352 | 18.33° C | 73% | 1012.4 hPa | 0 mm | - | 157 W/m² | - |
* Rain latest hour (hover to see other rain measurements)
** Current wind speed in m/s (hover to see current wind gust speed)